Tahitian Princess — ZCDD8 — position and weather

sailwx.info

Track history (hours):
 
Tides and Currents Weather Stations Pressure Air Temp Water Temp Dewpoint Dewpoint Depression Visibility Wind Speed Wind Dir Waves Ship Positions

Tahitian Princess

Operator: P & O Irish Sea Ltd

Last reported at 2018-Oct-20 13:30 UTC. Time now 2018-Oct-20 13:47 UTC.
Position N 53°31' W 003°39'.

Length 167 m; draft 5.8 m.

Type: Passenger vessel. MMSI: 310362000.

Date/timePositionNaut miles runAvg speedWind from/ knotsBaromVisibWave heightAir tempDewpointWater temp
2018-Oct-20 13:30N 53°31' W 003°39'7118.9
2018-Oct-20 09:45N 53°26' W 005°38'819.3
2018-Oct-20 09:21N 53°23' W 005°50'619.0
2018-Oct-20 09:01N 53°21' W 005°60'8 5.1
2018-Oct-20 07:28N 53°21' W 006°13'0 0.0
2018-Oct-20 06:42N 53°21' W 006°13'0 0.0
2018-Oct-20 06:09N 53°21' W 006°13'0 0.0
2018-Oct-20 04:44N 53°21' W 006°13'0 0.0
2018-Oct-20 04:27N 53°21' W 006°13'0 0.2
2018-Oct-20 04:00N 53°21' W 006°13'810.1
2018-Oct-20 03:15N 53°21' W 006°00'817.7
2018-Oct-20 02:48N 53°25' W 005°49'517.0
2018-Oct-20 02:29N 53°26' W 005°40'817.1
2018-Oct-20 02:02N 53°27' W 005°27'117.1
2018-Oct-20 02:00N 53°27' W 005°26'4818.9
2018-Oct-19 23:29N 53°35' W 004°07'1119.2
2018-Oct-19 22:54N 53°34' W 003°49'818.9
2018-Oct-19 22:30N 53°33' W 003°36'818.9
2018-Oct-19 22:03N 53°32' W 003°22'118.8
2018-Oct-19 22:00N 53°32' W 003°20'917.4
2018-Oct-19 21:30N 53°30' W 003°06'4 9.6
2018-Oct-19 21:04N 53°27' W 003°01'0 0.0
2018-Oct-19 21:01N 53°27' W 003°01'0 0.3
2018-Oct-19 20:31N 53°27' W 003°01'0 0.6
2018-Oct-19 20:03N 53°27' W 003°01'0 0.0
2018-Oct-19 20:00N 53°27' W 003°01'0 0.0
2018-Oct-19 19:31N 53°27' W 003°01'0 0.0
2018-Oct-19 19:04N 53°27' W 003°01'0 0.0
2018-Oct-19 19:01N 53°27' W 003°01'0 0.0
2018-Oct-19 18:30N 53°27' W 003°01'0 0.0
2018-Oct-19 18:03N 53°27' W 003°01'0 0.0
2018-Oct-19 18:01N 53°27' W 003°01'0 0.0
2018-Oct-19 17:30N 53°27' W 003°01'0 0.0
2018-Oct-19 17:03N 53°27' W 003°01'0 0.0
2018-Oct-19 17:00N 53°27' W 003°01'0 0.0
2018-Oct-19 16:30N 53°27' W 003°01'0 0.0
2018-Oct-19 16:04N 53°27' W 003°01'0 0.0
2018-Oct-19 16:01N 53°27' W 003°01'0 0.6
2018-Oct-19 15:31N 53°27' W 003°01'0 0.4
2018-Oct-19 15:04N 53°27' W 003°01'0 0.1
2018-Oct-19 15:01N 53°27' W 003°01'1212.2
2018-Oct-19 14:00N 53°31' W 003°20'1019.1
2018-Oct-19 13:30N 53°31' W 003°36'7017.4
2018-Oct-19 09:28N 53°26' W 005°34'1219.3
2018-Oct-19 08:52N 53°23' W 005°53'818.2
2018-Oct-19 08:25N 53°20' W 006°06'5 1.3
2018-Oct-19 04:51N 53°21' W 006°13'0 0.1
2018-Oct-19 03:57N 53°21' W 006°13'810.9
2018-Oct-19 03:15N 53°22' W 006°00'317.2
2018-Oct-19 03:03N 53°23' W 005°55'317.4
2018-Oct-19 02:53N 53°24' W 005°51'1017.5
2018-Oct-19 02:18N 53°26' W 005°34'6418.7
2018-Oct-18 22:53N 53°34' W 003°48'719.2
2018-Oct-18 22:31N 53°33' W 003°35'919.0
2018-Oct-18 22:03N 53°32' W 003°21'119.1
2018-Oct-18 22:00N 53°32' W 003°19'816.1
2018-Oct-18 21:30N 53°31' W 003°06'510.6
2018-Oct-18 21:03N 53°27' W 003°01'0 0.0
2018-Oct-18 21:00N 53°27' W 003°01'0 0.6
2018-Oct-18 20:30N 53°27' W 003°01'0 0.5
2018-Oct-18 20:03N 53°27' W 003°01'0 0.0
2018-Oct-18 20:00N 53°27' W 003°01'0 0.0
2018-Oct-18 19:30N 53°27' W 003°01'0 0.0
2018-Oct-18 19:03N 53°27' W 003°01'0 0.0
2018-Oct-18 19:00N 53°27' W 003°01'0 0.0
2018-Oct-18 18:30N 53°27' W 003°01'0 0.0
2018-Oct-18 18:03N 53°27' W 003°01'0 0.0
2018-Oct-18 18:00N 53°27' W 003°01'0 0.0
2018-Oct-18 17:30N 53°27' W 003°01'0 0.0
2018-Oct-18 17:03N 53°27' W 003°01'0 0.0
2018-Oct-18 17:00N 53°27' W 003°01'0 0.0
2018-Oct-18 16:30N 53°27' W 003°01'0 0.0
2018-Oct-18 16:03N 53°27' W 003°01'0 0.0
2018-Oct-18 16:00N 53°27' W 003°01'0 0.5
2018-Oct-18 15:30N 53°27' W 003°01'0 0.5
2018-Oct-18 15:03N 53°27' W 003°01'0 0.8
2018-Oct-18 15:00N 53°27' W 003°01'5 9.3
2018-Oct-18 14:30N 53°30' W 003°06'1818.4
2018-Oct-18 13:30N 53°31' W 003°37'1119.3
2018-Oct-18 12:56N 53°33' W 003°56'6918.6
2018-Oct-18 09:14N 53°23' W 005°50'419.1
2018-Oct-18 09:03N 53°22' W 005°56'118.6
2018-Oct-18 09:00N 53°21' W 005°57'816.0
2018-Oct-18 08:30N 53°21' W 006°10'2 2.7
2018-Oct-18 07:50N 53°21' W 006°13'0 0.0
2018-Oct-18 07:25N 53°21' W 006°13'0 0.0
2018-Oct-18 04:24N 53°21' W 006°13'0 0.3
2018-Oct-18 03:55N 53°21' W 006°13'510.9
2018-Oct-18 03:27N 53°20' W 006°04'818.7
2018-Oct-18 03:02N 53°23' W 005°52'120.4
2018-Oct-18 03:00N 53°24' W 005°51'1120.4
2018-Oct-18 02:28N 53°27' W 005°34'6620.1
2018-Oct-17 23:11N 53°34' W 003°43'320.9
2018-Oct-17 23:03N 53°33' W 003°39'120.8
2018-Oct-17 23:00N 53°33' W 003°37'1020.7
2018-Oct-17 22:30N 53°32' W 003°20'817.7
2018-Oct-17 22:03N 53°31' W 003°07'117.9
2018-Oct-17 22:00N 53°30' W 003°06'4 8.6
2018-Oct-17 21:30N 53°27' W 003°01'0 0.5
2018-Oct-17 21:03N 53°27' W 003°01'0 2.4
2018-Oct-17 21:00N 53°27' W 003°01'0 0.4
2018-Oct-17 20:30N 53°27' W 003°01'0 0.0
2018-Oct-17 20:03N 53°27' W 003°01'0 0.0
2018-Oct-17 20:00N 53°27' W 003°01'0 0.0
2018-Oct-17 19:30N 53°27' W 003°01'0 0.0
2018-Oct-17 19:03N 53°27' W 003°01'0 0.0
2018-Oct-17 19:00N 53°27' W 003°01'0 0.0
2018-Oct-17 18:30N 53°27' W 003°01'0 0.0
2018-Oct-17 18:03N 53°27' W 003°01'0 0.0
2018-Oct-17 18:00N 53°27' W 003°01'0 0.0
2018-Oct-17 17:30N 53°27' W 003°01'0 0.0
2018-Oct-17 17:03N 53°27' W 003°01'0 0.0
2018-Oct-17 17:00N 53°27' W 003°01'0 0.0
2018-Oct-17 16:30N 53°27' W 003°01'0 0.5
2018-Oct-17 16:03N 53°27' W 003°01'0 0.5
2018-Oct-17 16:00N 53°27' W 003°01'1 2.0
2018-Oct-17 15:30N 53°26' W 003°01'0 0.0
2018-Oct-17 15:03N 53°26' W 003°01'0 0.0
2018-Oct-17 15:00N 53°26' W 003°01'3 5.4
2018-Oct-17 14:30N 53°28' W 003°04'1717.2
2018-Oct-17 13:30N 53°31' W 003°32'8118.7
2018-Oct-17 09:11N 53°24' W 005°48'319.1
2018-Oct-17 09:02N 53°23' W 005°52'219.0
2018-Oct-17 08:57N 53°22' W 005°55'11 2.2
2018-Oct-17 03:59N 53°21' W 006°13'4 8.4
2018-Oct-17 03:28N 53°20' W 006°06'1117.7
2018-Oct-17 02:51N 53°24' W 005°49'718.0
2018-Oct-17 02:29N 53°26' W 005°38'6818.5
2018-Oct-16 22:47N 53°33' W 003°44'518.0
2018-Oct-16 22:30N 53°33' W 003°35'818.2
2018-Oct-16 22:03N 53°33' W 003°22'118.3
2018-Oct-16 22:00N 53°32' W 003°20'816.6
2018-Oct-16 21:31N 53°31' W 003°06'511.3
2018-Oct-16 21:04N 53°27' W 003°01'0 0.0
2018-Oct-16 21:01N 53°27' W 003°01'0 0.8
2018-Oct-16 20:30N 53°27' W 003°01'0 0.4
2018-Oct-16 20:04N 53°27' W 003°01'0 0.0
2018-Oct-16 20:01N 53°27' W 003°01'0 0.0
2018-Oct-16 19:31N 53°27' W 003°01'0 0.0
2018-Oct-16 19:03N 53°27' W 003°01'0 0.0
2018-Oct-16 19:00N 53°27' W 003°01'0 0.0
2018-Oct-16 18:31N 53°27' W 003°01'0 0.0
2018-Oct-16 18:03N 53°27' W 003°01'0 0.0
2018-Oct-16 18:01N 53°27' W 003°01'0 0.0
2018-Oct-16 17:30N 53°27' W 003°01'0 0.0
2018-Oct-16 17:03N 53°27' W 003°01'0 0.0
2018-Oct-16 17:00N 53°27' W 003°01'0 0.0
2018-Oct-16 16:31N 53°27' W 003°01'0 0.0
2018-Oct-16 16:03N 53°27' W 003°01'0 0.0
2018-Oct-16 16:01N 53°27' W 003°01'0 0.3
2018-Oct-16 15:31N 53°27' W 003°01'0 0.7
2018-Oct-16 15:03N 53°27' W 003°01'0 0.6
2018-Oct-16 15:00N 53°27' W 003°01'4 8.9
2018-Oct-16 14:30N 53°30' W 003°06'917.4
2018-Oct-16 14:00N 53°31' W 003°21'1019.6
2018-Oct-16 13:30N 53°31' W 003°37'6818.6
2018-Oct-16 09:49N 53°27' W 005°32'719.1
2018-Oct-16 09:29N 53°25' W 005°42'919.1
2018-Oct-16 09:00N 53°22' W 005°57'10 9.0
2018-Oct-16 07:55N 53°21' W 006°13'0 0.0
2018-Oct-16 07:28N 53°21' W 006°13'0 0.0
2018-Oct-16 04:26N 53°21' W 006°13'0 0.2
2018-Oct-16 03:55N 53°21' W 006°13'3 8.0
2018-Oct-16 03:30N 53°20' W 006°07'817.0
2018-Oct-16 03:03N 53°23' W 005°55'116.8
2018-Oct-16 03:00N 53°23' W 005°54'816.7
2018-Oct-16 02:30N 53°25' W 005°40'817.7
2018-Oct-16 02:03N 53°27' W 005°27'1617.6
2018-Oct-16 01:08N 53°31' W 005°01'517.0
2018-Oct-16 00:49N 53°32' W 004°52'715.2
2018-Oct-16 00:23N 53°33' W 004°41'1514.7
2018-Oct-15 23:23N 53°34' W 004°16'515.5
2018-Oct-15 23:03N 53°34' W 004°08'415.9
2018-Oct-15 22:47N 53°34' W 004°00'516.2
2018-Oct-15 22:29N 53°34' W 003°53'716.4
2018-Oct-15 22:03N 53°33' W 003°41'116.7
2018-Oct-15 22:00N 53°33' W 003°39'816.9
2018-Oct-15 21:30N 53°33' W 003°25'817.9
2018-Oct-15 21:03N 53°32' W 003°12'118.5
2018-Oct-15 21:00N 53°32' W 003°10'714.5
2018-Oct-15 20:30N 53°27' W 003°01'0 0.1
2018-Oct-15 20:03N 53°27' W 003°01'0 0.7
2018-Oct-15 20:00N 53°27' W 003°01'0 0.8
2018-Oct-15 19:30N 53°27' W 003°01'0 0.0
2018-Oct-15 19:03N 53°27' W 003°01'0 0.0
2018-Oct-15 19:00N 53°27' W 003°01'0 0.0
2018-Oct-15 18:30N 53°27' W 003°01'0 0.0
2018-Oct-15 18:03N 53°27' W 003°01'0 0.0
2018-Oct-15 18:00N 53°27' W 003°01'0 0.0
2018-Oct-15 17:30N 53°27' W 003°01'0 0.0
2018-Oct-15 17:03N 53°27' W 003°01'0 0.0
2018-Oct-15 17:00N 53°27' W 003°01'0 0.0
2018-Oct-15 16:30N 53°27' W 003°01'0 0.0
2018-Oct-15 16:03N 53°27' W 003°01'0 0.0
2018-Oct-15 16:00N 53°27' W 003°01'0 0.0
2018-Oct-15 15:30N 53°27' W 003°01'0 0.9
2018-Oct-15 15:03N 53°27' W 003°01'0 0.0
2018-Oct-15 15:00N 53°27' W 003°01'510.3
2018-Oct-15 14:31N 53°31' W 003°07'918.3
2018-Oct-15 14:01N 53°31' W 003°22'917.8
2018-Oct-15 13:30N 53°31' W 003°37'6917.5
2018-Oct-15 09:33N 53°26' W 005°33'118.9
2018-Oct-15 09:30N 53°26' W 005°35'819.1
2018-Oct-15 09:04N 53°23' W 005°48'119.0
2018-Oct-15 09:00N 53°23' W 005°49'1019.0
2018-Oct-15 08:30N 53°20' W 006°05'5 2.1
2018-Oct-15 06:04N 53°21' W 006°13'0 0.0
2018-Oct-15 05:15N 53°21' W 006°13'0 0.0
2018-Oct-15 04:13N 53°21' W 006°13'5 6.4
2018-Oct-15 03:26N 53°20' W 006°05'818.8
2018-Oct-15 03:02N 53°23' W 005°53'018.7
2018-Oct-15 03:00N 53°23' W 005°52'1018.6
2018-Oct-15 02:28N 53°26' W 005°36'5417.1
2018-Oct-14 23:16N 53°34' W 004°05'417.1
2018-Oct-14 23:01N 53°34' W 003°58'517.4
2018-Oct-14 22:43N 53°34' W 003°49'417.5
2018-Oct-14 22:30N 53°34' W 003°43'817.7
2018-Oct-14 22:03N 53°34' W 003°30'118.1
2018-Oct-14 22:00N 53°34' W 003°28'917.8
2018-Oct-14 21:30N 53°31' W 003°14'714.8
2018-Oct-14 21:03N 53°28' W 003°04'118.1
2018-Oct-14 21:00N 53°28' W 003°03'1 2.3
2018-Oct-14 20:31N 53°27' W 003°01'0 1.0
2018-Oct-14 20:03N 53°27' W 003°01'0 0.4
2018-Oct-14 20:01N 53°27' W 003°01'0 0.0
2018-Oct-14 19:31N 53°27' W 003°01'0 0.0
2018-Oct-14 19:04N 53°27' W 003°01'0 0.0
2018-Oct-14 19:01N 53°27' W 003°01'0 0.0
2018-Oct-14 18:31N 53°27' W 003°01'0 0.0
2018-Oct-14 18:03N 53°27' W 003°01'0 0.0
2018-Oct-14 18:00N 53°27' W 003°01'0 0.0
2018-Oct-14 17:30N 53°27' W 003°01'0 0.0
2018-Oct-14 17:03N 53°27' W 003°01'0 0.0
2018-Oct-14 17:01N 53°27' W 003°01'0 0.0
2018-Oct-14 16:31N 53°27' W 003°01'0 0.0
2018-Oct-14 16:03N 53°27' W 003°01'0 0.0
2018-Oct-14 16:01N 53°27' W 003°01'0 0.8
2018-Oct-14 15:31N 53°27' W 003°01'0 0.4
2018-Oct-14 15:04N 53°27' W 003°01'0 6.2
2018-Oct-14 15:00N 53°27' W 003°02'1516.0
2018-Oct-14 14:03N 53°31' W 003°26'120.6
2018-Oct-14 14:00N 53°31' W 003°28'1020.6
2018-Oct-14 13:30N 53°32' W 003°45'1021.4
2018-Oct-14 13:03N 53°34' W 004°01'121.6
2018-Oct-14 13:01N 53°34' W 004°03'5421.5
2018-Oct-14 10:30N 53°25' W 005°32'1120.8
2018-Oct-14 09:58N 53°23' W 005°51'1019.6
2018-Oct-14 09:29N 53°20' W 006°06'4 3.5
2018-Oct-14 08:18N 53°21' W 006°13'0 0.0
2018-Oct-14 07:54N 53°21' W 006°13'0 0.0
2018-Oct-14 04:31N 53°21' W 006°13'0 0.2
2018-Oct-14 03:58N 53°21' W 006°13'6 9.9
2018-Oct-14 03:25N 53°20' W 006°04'1019.9
2018-Oct-14 02:56N 53°24' W 005°49'920.1
2018-Oct-14 02:30N 53°26' W 005°35'5418.7
2018-Oct-13 23:35N 53°34' W 004°04'218.4
2018-Oct-13 23:27N 53°34' W 004°00'718.6
2018-Oct-13 23:03N 53°34' W 003°48'118.5
2018-Oct-13 22:59N 53°34' W 003°45'918.6
2018-Oct-13 22:30N 53°33' W 003°31'818.2
2018-Oct-13 22:03N 53°32' W 003°17'116.1
2018-Oct-13 22:00N 53°32' W 003°16'713.9
2018-Oct-13 21:30N 53°29' W 003°05'3 6.6
2018-Oct-13 21:04N 53°27' W 003°01'0 0.0
2018-Oct-13 21:01N 53°27' W 003°01'0 0.9
2018-Oct-13 20:31N 53°27' W 003°01'0 0.0
2018-Oct-13 20:04N 53°27' W 003°01'0 0.0
2018-Oct-13 20:01N 53°27' W 003°01'0 0.0
2018-Oct-13 19:31N 53°27' W 003°01'0 0.0
2018-Oct-13 19:04N 53°27' W 003°01'0 0.0
2018-Oct-13 19:01N 53°27' W 003°01'0 0.0
2018-Oct-13 18:30N 53°27' W 003°01'0 0.0
2018-Oct-13 18:03N 53°27' W 003°01'0 0.0
2018-Oct-13 18:00N 53°27' W 003°01'0 0.0
2018-Oct-13 17:31N 53°27' W 003°01'0 0.0
2018-Oct-13 17:03N 53°27' W 003°01'0 0.0
2018-Oct-13 17:01N 53°27' W 003°01'0 0.0
2018-Oct-13 16:31N 53°27' W 003°01'0 0.0
2018-Oct-13 16:03N 53°27' W 003°01'0 0.0
2018-Oct-13 16:01N 53°27' W 003°01'0 0.5
2018-Oct-13 15:31N 53°27' W 003°01'0 0.9
2018-Oct-13 15:03N 53°27' W 003°01'0 0.3
2018-Oct-13 15:00N 53°27' W 003°01'713.3
2018-Oct-13 14:30N 53°32' W 003°09'918.3
2018-Oct-13 14:01N 53°31' W 003°24'918.9
2018-Oct-13 13:30N 53°31' W 003°40'919.2
2018-Oct-13 13:03N 53°33' W 003°54'119.6
2018-Oct-13 13:00N 53°33' W 003°56'5919.7
2018-Oct-13 10:01N 53°27' W 005°34'519.0
2018-Oct-13 09:45N 53°25' W 005°42'619.0
2018-Oct-13 09:26N 53°23' W 005°51'819.3
2018-Oct-13 09:00N 53°20' W 006°04'5 9.6
2018-Oct-13 08:29N 53°21' W 006°13'0 0.6
2018-Oct-13 08:03N 53°21' W 006°13'0 0.0
2018-Oct-13 07:53N 53°21' W 006°13'0 0.0
2018-Oct-13 07:30N 53°21' W 006°13'0 0.0
2018-Oct-13 06:59N 53°21' W 006°13'0 0.0
2018-Oct-13 06:29N 53°21' W 006°13'0 0.0
2018-Oct-13 06:01N 53°21' W 006°13'0 0.0
2018-Oct-13 05:26N 53°21' W 006°13'0 0.0
2018-Oct-13 05:03N 53°21' W 006°13'0 0.0
2018-Oct-13 05:00N 53°21' W 006°13'0 0.0
2018-Oct-13 04:30N 53°21' W 006°13'1 0.9
2018-Oct-13 03:51N 53°21' W 006°12'411.3
2018-Oct-13 03:28N 53°20' W 006°05'919.7
2018-Oct-13 03:02N 53°23' W 005°52'120.5
2018-Oct-13 02:59N 53°24' W 005°50'1020.4
2018-Oct-13 02:30N 53°26' W 005°34'5319.2
2018-Oct-12 23:44N 53°34' W 004°06'518.4
2018-Oct-12 23:29N 53°34' W 003°58'818.5
2018-Oct-12 23:02N 53°34' W 003°44'018.4
2018-Oct-12 23:00N 53°34' W 003°43'918.4
2018-Oct-12 22:30N 53°33' W 003°28'817.7
2018-Oct-12 22:03N 53°31' W 003°15'115.9
2018-Oct-12 22:00N 53°31' W 003°13'713.5
2018-Oct-12 21:30N 53°28' W 003°03'2 3.8
2018-Oct-12 21:04N 53°27' W 003°01'0 0.0
2018-Oct-12 21:00N 53°27' W 003°01'0 0.6
2018-Oct-12 20:30N 53°27' W 003°01'0 0.0
2018-Oct-12 20:03N 53°27' W 003°01'0 0.0
2018-Oct-12 20:00N 53°27' W 003°01'0 0.0
2018-Oct-12 19:30N 53°27' W 003°01'0 0.0
2018-Oct-12 19:03N 53°27' W 003°01'0 0.0
2018-Oct-12 19:00N 53°27' W 003°01'0 0.0
2018-Oct-12 18:30N 53°27' W 003°01'0 0.0
2018-Oct-12 18:03N 53°27' W 003°01'0 0.0
2018-Oct-12 18:00N 53°27' W 003°01'0 0.0
2018-Oct-12 17:30N 53°27' W 003°01'0 0.0
2018-Oct-12 17:03N 53°27' W 003°01'0 0.0
2018-Oct-12 17:00N 53°27' W 003°01'0 0.0
2018-Oct-12 16:31N 53°27' W 003°01'0 0.0
2018-Oct-12 16:03N 53°27' W 003°01'0 0.0
2018-Oct-12 16:00N 53°27' W 003°01'0 0.0
2018-Oct-12 15:30N 53°27' W 003°01'0 0.0
2018-Oct-12 15:03N 53°27' W 003°01'0 0.0
2018-Oct-12 15:00N 53°27' W 003°01'0 0.0
2018-Oct-12 14:30N 53°27' W 003°01'0 0.0
2018-Oct-12 14:00N 53°27' W 003°01'0 0.0
2018-Oct-12 13:30N 53°27' W 003°01'0 0.0
2018-Oct-12 13:03N 53°27' W 003°01'0 0.0
2018-Oct-12 13:00N 53°27' W 003°01'0 0.0
2018-Oct-12 12:30N 53°27' W 003°01'0 0.0
2018-Oct-12 12:03N 53°27' W 003°01'0 0.0
2018-Oct-12 12:01N 53°27' W 003°01'0 0.0
2018-Oct-12 11:31N 53°27' W 003°01'0 0.0
2018-Oct-12 11:03N 53°27' W 003°01'0 0.0
2018-Oct-12 11:01N 53°27' W 003°01'0 0.0
2018-Oct-12 10:30N 53°27' W 003°01'0 0.0
2018-Oct-12 10:04N 53°27' W 003°01'0 0.0
2018-Oct-12 10:00N 53°27' W 003°01'0 0.0
2018-Oct-12 09:31N 53°27' W 003°01'0 0.0
2018-Oct-12 09:04N 53°27' W 003°01'0 0.0
2018-Oct-12 09:00N 53°27' W 003°01'0 0.0
2018-Oct-12 08:30N 53°27' W 003°01'0 0.0
2018-Oct-12 08:03N 53°27' W 003°01'0 0.0
2018-Oct-12 08:01N 53°27' W 003°01'0 0.0
2018-Oct-12 07:30N 53°27' W 003°01'0 0.0
2018-Oct-12 07:03N 53°27' W 003°01'0 0.0
2018-Oct-12 07:00N 53°27' W 003°01'0 0.0
2018-Oct-12 06:30N 53°27' W 003°01'0 0.0
2018-Oct-12 06:04N 53°27' W 003°01'0 0.0
2018-Oct-12 06:01N 53°27' W 003°01'0 0.0
2018-Oct-12 05:31N 53°27' W 003°01'0 0.0
2018-Oct-12 05:04N 53°27' W 003°01'0 0.0
2018-Oct-12 05:01N 53°27' W 003°01'0 0.0
2018-Oct-12 04:31N 53°27' W 003°01'0 0.4
2018-Oct-12 04:03N 53°27' W 003°01'0 1.5
2018-Oct-12 04:01N 53°27' W 003°01'0 0.6
2018-Oct-12 03:31N 53°27' W 003°01'510.4
2018-Oct-12 03:04N 53°30' W 003°06'115.9
2018-Oct-12 03:01N 53°31' W 003°07'815.8
2018-Oct-12 02:31N 53°31' W 003°20'816.7
2018-Oct-12 02:04N 53°31' W 003°33'116.0
2018-Oct-12 02:01N 53°31' W 003°34'816.3
2018-Oct-12 01:30N 53°31' W 003°48'818.0
2018-Oct-12 01:04N 53°32' W 004°01'118.1
2018-Oct-12 01:00N 53°32' W 004°03'918.4
2018-Oct-12 00:30N 53°33' W 004°19'5619.0
2018-Oct-11 21:33N 53°23' W 005°51'719.8
2018-Oct-11 21:12N 53°20' W 006°02'216.4
2018-Oct-11 21:03N 53°20' W 006°06'4 0.9
2018-Oct-11 16:28N 53°21' W 006°13'3 4.5
2018-Oct-11 15:54N 53°21' W 006°09'716.6
2018-Oct-11 15:29N 53°22' W 005°57'918.5
2018-Oct-11 15:01N 53°24' W 005°44'018.9
2018-Oct-11 15:00N 53°24' W 005°43'1018.2
2018-Oct-11 14:29N 53°27' W 005°28'5917.7
2018-Oct-11 11:10N 53°34' W 003°50'217.2
2018-Oct-11 11:02N 53°34' W 003°46'117.1
2018-Oct-11 11:00N 53°34' W 003°45'816.8
2018-Oct-11 10:30N 53°33' W 003°31'816.9
2018-Oct-11 10:03N 53°32' W 003°19'116.9
2018-Oct-11 10:00N 53°31' W 003°17'714.8
2018-Oct-11 09:30N 53°30' W 003°05'4 8.0
2018-Oct-11 09:03N 53°27' W 003°01'0 0.0
2018-Oct-11 09:00N 53°27' W 003°01'0 0.9
2018-Oct-11 08:31N 53°27' W 003°01'0 0.0
2018-Oct-11 08:03N 53°27' W 003°01'0 0.0
2018-Oct-11 08:01N 53°27' W 003°01'0 0.0
2018-Oct-11 07:31N 53°27' W 003°01'0 0.0
2018-Oct-11 07:03N 53°27' W 003°01'0 0.0
2018-Oct-11 07:00N 53°27' W 003°01'0 0.0
2018-Oct-11 06:31N 53°27' W 003°01'0 0.0
2018-Oct-11 06:03N 53°27' W 003°01'0 0.0
2018-Oct-11 06:01N 53°27' W 003°01'0 0.0
2018-Oct-11 05:31N 53°27' W 003°01'0 0.0
2018-Oct-11 05:03N 53°27' W 003°01'0 0.0
2018-Oct-11 05:01N 53°27' W 003°01'0 0.0
2018-Oct-11 04:31N 53°27' W 003°01'0 1.0
2018-Oct-11 04:03N 53°27' W 003°01'0 0.0
2018-Oct-11 04:00N 53°27' W 003°01'0 0.3
2018-Oct-11 03:31N 53°27' W 003°01'510.2
2018-Oct-11 03:03N 53°30' W 003°06'115.2
2018-Oct-11 03:00N 53°31' W 003°07'816.0
2018-Oct-11 02:30N 53°31' W 003°20'817.3
2018-Oct-11 02:03N 53°31' W 003°33'117.1
2018-Oct-11 02:00N 53°31' W 003°35'917.2
2018-Oct-11 01:30N 53°32' W 003°49'715.7
2018-Oct-11 01:03N 53°33' W 004°01'114.6
2018-Oct-11 01:00N 53°33' W 004°02'6218.2
2018-Oct-10 21:35N 53°24' W 005°46'319.0
2018-Oct-10 21:24N 53°23' W 005°51'918.9
2018-Oct-10 20:56N 53°20' W 006°05'5 2.1
2018-Oct-10 18:27N 53°21' W 006°13'3 1.2
2018-Oct-10 16:05N 53°21' W 006°08'214.1
2018-Oct-10 15:56N 53°20' W 006°04'818.6
2018-Oct-10 15:29N 53°23' W 005°51'918.7
2018-Oct-10 15:00N 53°26' W 005°37'  
Track history (hours):
 
Tides and Currents Weather Stations Pressure Air Temp Water Temp Dewpoint Dewpoint Depression Visibility Wind Speed Wind Dir Waves Ship Positions

Tahitian Princess

Operator: P & O Irish Sea Ltd

Last reported at 2018-Oct-20 13:30 UTC. Time now 2018-Oct-20 13:47 UTC.
Position N 53°31' W 003°39'.

Length 167 m; draft 5.8 m.

Type: Passenger vessel. MMSI: 310362000.

Date/timePositionNaut miles runAvg speedWind from/ knotsBaromVisibWave heightAir tempDewpointWater temp
2018-Oct-20 13:30N 53°31' W 003°39'7118.9
2018-Oct-20 09:45N 53°26' W 005°38'819.3
2018-Oct-20 09:21N 53°23' W 005°50'619.0
2018-Oct-20 09:01N 53°21' W 005°60'8 5.1
2018-Oct-20 07:28N 53°21' W 006°13'0 0.0
2018-Oct-20 06:42N 53°21' W 006°13'0 0.0
2018-Oct-20 06:09N 53°21' W 006°13'0 0.0
2018-Oct-20 04:44N 53°21' W 006°13'0 0.0
2018-Oct-20 04:27N 53°21' W 006°13'0 0.2
2018-Oct-20 04:00N 53°21' W 006°13'810.1
2018-Oct-20 03:15N 53°21' W 006°00'817.7
2018-Oct-20 02:48N 53°25' W 005°49'517.0
2018-Oct-20 02:29N 53°26' W 005°40'817.1
2018-Oct-20 02:02N 53°27' W 005°27'117.1
2018-Oct-20 02:00N 53°27' W 005°26'4818.9
2018-Oct-19 23:29N 53°35' W 004°07'1119.2
2018-Oct-19 22:54N 53°34' W 003°49'818.9
2018-Oct-19 22:30N 53°33' W 003°36'818.9
2018-Oct-19 22:03N 53°32' W 003°22'118.8
2018-Oct-19 22:00N 53°32' W 003°20'917.4
2018-Oct-19 21:30N 53°30' W 003°06'4 9.6
2018-Oct-19 21:04N 53°27' W 003°01'0 0.0
2018-Oct-19 21:01N 53°27' W 003°01'0 0.3
2018-Oct-19 20:31N 53°27' W 003°01'0 0.6
2018-Oct-19 20:03N 53°27' W 003°01'0 0.0
2018-Oct-19 20:00N 53°27' W 003°01'0 0.0
2018-Oct-19 19:31N 53°27' W 003°01'0 0.0
2018-Oct-19 19:04N 53°27' W 003°01'0 0.0
2018-Oct-19 19:01N 53°27' W 003°01'0 0.0
2018-Oct-19 18:30N 53°27' W 003°01'0 0.0
2018-Oct-19 18:03N 53°27' W 003°01'0 0.0
2018-Oct-19 18:01N 53°27' W 003°01'0 0.0
2018-Oct-19 17:30N 53°27' W 003°01'0 0.0
2018-Oct-19 17:03N 53°27' W 003°01'0 0.0
2018-Oct-19 17:00N 53°27' W 003°01'0 0.0
2018-Oct-19 16:30N 53°27' W 003°01'0 0.0
2018-Oct-19 16:04N 53°27' W 003°01'0 0.0
2018-Oct-19 16:01N 53°27' W 003°01'0 0.6
2018-Oct-19 15:31N 53°27' W 003°01'0 0.4
2018-Oct-19 15:04N 53°27' W 003°01'0 0.1
2018-Oct-19 15:01N 53°27' W 003°01'1212.2
2018-Oct-19 14:00N 53°31' W 003°20'1019.1
2018-Oct-19 13:30N 53°31' W 003°36'7017.4
2018-Oct-19 09:28N 53°26' W 005°34'1219.3
2018-Oct-19 08:52N 53°23' W 005°53'818.2
2018-Oct-19 08:25N 53°20' W 006°06'5 1.3
2018-Oct-19 04:51N 53°21' W 006°13'0 0.1
2018-Oct-19 03:57N 53°21' W 006°13'810.9
2018-Oct-19 03:15N 53°22' W 006°00'317.2
2018-Oct-19 03:03N 53°23' W 005°55'317.4
2018-Oct-19 02:53N 53°24' W 005°51'1017.5
2018-Oct-19 02:18N 53°26' W 005°34'6418.7
2018-Oct-18 22:53N 53°34' W 003°48'719.2
2018-Oct-18 22:31N 53°33' W 003°35'919.0
2018-Oct-18 22:03N 53°32' W 003°21'119.1
2018-Oct-18 22:00N 53°32' W 003°19'816.1
2018-Oct-18 21:30N 53°31' W 003°06'510.6
2018-Oct-18 21:03N 53°27' W 003°01'0 0.0
2018-Oct-18 21:00N 53°27' W 003°01'0 0.6
2018-Oct-18 20:30N 53°27' W 003°01'0 0.5
2018-Oct-18 20:03N 53°27' W 003°01'0 0.0
2018-Oct-18 20:00N 53°27' W 003°01'0 0.0
2018-Oct-18 19:30N 53°27' W 003°01'0 0.0
2018-Oct-18 19:03N 53°27' W 003°01'0 0.0
2018-Oct-18 19:00N 53°27' W 003°01'0 0.0
2018-Oct-18 18:30N 53°27' W 003°01'0 0.0
2018-Oct-18 18:03N 53°27' W 003°01'0 0.0
2018-Oct-18 18:00N 53°27' W 003°01'0 0.0
2018-Oct-18 17:30N 53°27' W 003°01'0 0.0
2018-Oct-18 17:03N 53°27' W 003°01'0 0.0
2018-Oct-18 17:00N 53°27' W 003°01'0 0.0
2018-Oct-18 16:30N 53°27' W 003°01'0 0.0
2018-Oct-18 16:03N 53°27' W 003°01'0 0.0
2018-Oct-18 16:00N 53°27' W 003°01'0 0.5
2018-Oct-18 15:30N 53°27' W 003°01'0 0.5
2018-Oct-18 15:03N 53°27' W 003°01'0 0.8
2018-Oct-18 15:00N 53°27' W 003°01'5 9.3
2018-Oct-18 14:30N 53°30' W 003°06'1818.4
2018-Oct-18 13:30N 53°31' W 003°37'1119.3
2018-Oct-18 12:56N 53°33' W 003°56'6918.6
2018-Oct-18 09:14N 53°23' W 005°50'419.1
2018-Oct-18 09:03N 53°22' W 005°56'118.6
2018-Oct-18 09:00N 53°21' W 005°57'816.0
2018-Oct-18 08:30N 53°21' W 006°10'2 2.7
2018-Oct-18 07:50N 53°21' W 006°13'0 0.0
2018-Oct-18 07:25N 53°21' W 006°13'0 0.0
2018-Oct-18 04:24N 53°21' W 006°13'0 0.3
2018-Oct-18 03:55N 53°21' W 006°13'510.9
2018-Oct-18 03:27N 53°20' W 006°04'818.7
2018-Oct-18 03:02N 53°23' W 005°52'120.4
2018-Oct-18 03:00N 53°24' W 005°51'1120.4
2018-Oct-18 02:28N 53°27' W 005°34'6620.1
2018-Oct-17 23:11N 53°34' W 003°43'320.9
2018-Oct-17 23:03N 53°33' W 003°39'120.8
2018-Oct-17 23:00N 53°33' W 003°37'1020.7
2018-Oct-17 22:30N 53°32' W 003°20'817.7
2018-Oct-17 22:03N 53°31' W 003°07'117.9
2018-Oct-17 22:00N 53°30' W 003°06'4 8.6
2018-Oct-17 21:30N 53°27' W 003°01'0 0.5
2018-Oct-17 21:03N 53°27' W 003°01'0 2.4
2018-Oct-17 21:00N 53°27' W 003°01'0 0.4
2018-Oct-17 20:30N 53°27' W 003°01'0 0.0
2018-Oct-17 20:03N 53°27' W 003°01'0 0.0
2018-Oct-17 20:00N 53°27' W 003°01'0 0.0
2018-Oct-17 19:30N 53°27' W 003°01'0 0.0
2018-Oct-17 19:03N 53°27' W 003°01'0 0.0
2018-Oct-17 19:00N 53°27' W 003°01'0 0.0
2018-Oct-17 18:30N 53°27' W 003°01'0 0.0
2018-Oct-17 18:03N 53°27' W 003°01'0 0.0
2018-Oct-17 18:00N 53°27' W 003°01'0 0.0
2018-Oct-17 17:30N 53°27' W 003°01'0 0.0
2018-Oct-17 17:03N 53°27' W 003°01'0 0.0
2018-Oct-17 17:00N 53°27' W 003°01'0 0.0
2018-Oct-17 16:30N 53°27' W 003°01'0 0.5
2018-Oct-17 16:03N 53°27' W 003°01'0 0.5
2018-Oct-17 16:00N 53°27' W 003°01'1 2.0
2018-Oct-17 15:30N 53°26' W 003°01'0 0.0
2018-Oct-17 15:03N 53°26' W 003°01'0 0.0
2018-Oct-17 15:00N 53°26' W 003°01'3 5.4
2018-Oct-17 14:30N 53°28' W 003°04'1717.2
2018-Oct-17 13:30N 53°31' W 003°32'8118.7
2018-Oct-17 09:11N 53°24' W 005°48'319.1
2018-Oct-17 09:02N 53°23' W 005°52'219.0
2018-Oct-17 08:57N 53°22' W 005°55'11 2.2
2018-Oct-17 03:59N 53°21' W 006°13'4 8.4
2018-Oct-17 03:28N 53°20' W 006°06'1117.7
2018-Oct-17 02:51N 53°24' W 005°49'718.0
2018-Oct-17 02:29N 53°26' W 005°38'6818.5
2018-Oct-16 22:47N 53°33' W 003°44'518.0
2018-Oct-16 22:30N 53°33' W 003°35'818.2
2018-Oct-16 22:03N 53°33' W 003°22'118.3
2018-Oct-16 22:00N 53°32' W 003°20'816.6
2018-Oct-16 21:31N 53°31' W 003°06'511.3
2018-Oct-16 21:04N 53°27' W 003°01'0 0.0
2018-Oct-16 21:01N 53°27' W 003°01'0 0.8
2018-Oct-16 20:30N 53°27' W 003°01'0 0.4
2018-Oct-16 20:04N 53°27' W 003°01'0 0.0
2018-Oct-16 20:01N 53°27' W 003°01'0 0.0
2018-Oct-16 19:31N 53°27' W 003°01'0 0.0
2018-Oct-16 19:03N 53°27' W 003°01'0 0.0
2018-Oct-16 19:00N 53°27' W 003°01'0 0.0
2018-Oct-16 18:31N 53°27' W 003°01'0 0.0
2018-Oct-16 18:03N 53°27' W 003°01'0 0.0
2018-Oct-16 18:01N 53°27' W 003°01'0 0.0
2018-Oct-16 17:30N 53°27' W 003°01'0 0.0
2018-Oct-16 17:03N 53°27' W 003°01'0 0.0
2018-Oct-16 17:00N 53°27' W 003°01'0 0.0
2018-Oct-16 16:31N 53°27' W 003°01'0 0.0
2018-Oct-16 16:03N 53°27' W 003°01'0 0.0
2018-Oct-16 16:01N 53°27' W 003°01'0 0.3
2018-Oct-16 15:31N 53°27' W 003°01'0 0.7
2018-Oct-16 15:03N 53°27' W 003°01'0 0.6
2018-Oct-16 15:00N 53°27' W 003°01'4 8.9
2018-Oct-16 14:30N 53°30' W 003°06'917.4
2018-Oct-16 14:00N 53°31' W 003°21'1019.6
2018-Oct-16 13:30N 53°31' W 003°37'6818.6
2018-Oct-16 09:49N 53°27' W 005°32'719.1
2018-Oct-16 09:29N 53°25' W 005°42'919.1
2018-Oct-16 09:00N 53°22' W 005°57'10 9.0
2018-Oct-16 07:55N 53°21' W 006°13'0 0.0
2018-Oct-16 07:28N 53°21' W 006°13'0 0.0
2018-Oct-16 04:26N 53°21' W 006°13'0 0.2
2018-Oct-16 03:55N 53°21' W 006°13'3 8.0
2018-Oct-16 03:30N 53°20' W 006°07'817.0
2018-Oct-16 03:03N 53°23' W 005°55'116.8
2018-Oct-16 03:00N 53°23' W 005°54'816.7
2018-Oct-16 02:30N 53°25' W 005°40'817.7
2018-Oct-16 02:03N 53°27' W 005°27'1617.6
2018-Oct-16 01:08N 53°31' W 005°01'517.0
2018-Oct-16 00:49N 53°32' W 004°52'715.2
2018-Oct-16 00:23N 53°33' W 004°41'1514.7
2018-Oct-15 23:23N 53°34' W 004°16'515.5
2018-Oct-15 23:03N 53°34' W 004°08'415.9
2018-Oct-15 22:47N 53°34' W 004°00'516.2
2018-Oct-15 22:29N 53°34' W 003°53'716.4
2018-Oct-15 22:03N 53°33' W 003°41'116.7
2018-Oct-15 22:00N 53°33' W 003°39'816.9
2018-Oct-15 21:30N 53°33' W 003°25'817.9
2018-Oct-15 21:03N 53°32' W 003°12'118.5
2018-Oct-15 21:00N 53°32' W 003°10'714.5
2018-Oct-15 20:30N 53°27' W 003°01'0 0.1
2018-Oct-15 20:03N 53°27' W 003°01'0 0.7
2018-Oct-15 20:00N 53°27' W 003°01'0 0.8
2018-Oct-15 19:30N 53°27' W 003°01'0 0.0
2018-Oct-15 19:03N 53°27' W 003°01'0 0.0
2018-Oct-15 19:00N 53°27' W 003°01'0 0.0
2018-Oct-15 18:30N 53°27' W 003°01'0 0.0
2018-Oct-15 18:03N 53°27' W 003°01'0 0.0
2018-Oct-15 18:00N 53°27' W 003°01'0 0.0
2018-Oct-15 17:30N 53°27' W 003°01'0 0.0
2018-Oct-15 17:03N 53°27' W 003°01'0 0.0
2018-Oct-15 17:00N 53°27' W 003°01'0 0.0
2018-Oct-15 16:30N 53°27' W 003°01'0 0.0
2018-Oct-15 16:03N 53°27' W 003°01'0 0.0
2018-Oct-15 16:00N 53°27' W 003°01'0 0.0
2018-Oct-15 15:30N 53°27' W 003°01'0 0.9
2018-Oct-15 15:03N 53°27' W 003°01'0 0.0
2018-Oct-15 15:00N 53°27' W 003°01'510.3
2018-Oct-15 14:31N 53°31' W 003°07'918.3
2018-Oct-15 14:01N 53°31' W 003°22'917.8
2018-Oct-15 13:30N 53°31' W 003°37'6917.5
2018-Oct-15 09:33N 53°26' W 005°33'118.9
2018-Oct-15 09:30N 53°26' W 005°35'819.1
2018-Oct-15 09:04N 53°23' W 005°48'119.0
2018-Oct-15 09:00N 53°23' W 005°49'1019.0
2018-Oct-15 08:30N 53°20' W 006°05'5 2.1
2018-Oct-15 06:04N 53°21' W 006°13'0 0.0
2018-Oct-15 05:15N 53°21' W 006°13'0 0.0
2018-Oct-15 04:13N 53°21' W 006°13'5 6.4
2018-Oct-15 03:26N 53°20' W 006°05'818.8
2018-Oct-15 03:02N 53°23' W 005°53'018.7
2018-Oct-15 03:00N 53°23' W 005°52'1018.6
2018-Oct-15 02:28N 53°26' W 005°36'5417.1
2018-Oct-14 23:16N 53°34' W 004°05'417.1
2018-Oct-14 23:01N 53°34' W 003°58'517.4
2018-Oct-14 22:43N 53°34' W 003°49'417.5
2018-Oct-14 22:30N 53°34' W 003°43'817.7
2018-Oct-14 22:03N 53°34' W 003°30'118.1
2018-Oct-14 22:00N 53°34' W 003°28'917.8
2018-Oct-14 21:30N 53°31' W 003°14'714.8
2018-Oct-14 21:03N 53°28' W 003°04'118.1
2018-Oct-14 21:00N 53°28' W 003°03'1 2.3
2018-Oct-14 20:31N 53°27' W 003°01'0 1.0
2018-Oct-14 20:03N 53°27' W 003°01'0 0.4
2018-Oct-14 20:01N 53°27' W 003°01'0 0.0
2018-Oct-14 19:31N 53°27' W 003°01'0 0.0
2018-Oct-14 19:04N 53°27' W 003°01'0 0.0
2018-Oct-14 19:01N 53°27' W 003°01'0 0.0
2018-Oct-14 18:31N 53°27' W 003°01'0 0.0
2018-Oct-14 18:03N 53°27' W 003°01'0 0.0
2018-Oct-14 18:00N 53°27' W 003°01'0 0.0
2018-Oct-14 17:30N 53°27' W 003°01'0 0.0
2018-Oct-14 17:03N 53°27' W 003°01'0 0.0
2018-Oct-14 17:01N 53°27' W 003°01'0 0.0
2018-Oct-14 16:31N 53°27' W 003°01'0 0.0
2018-Oct-14 16:03N 53°27' W 003°01'0 0.0
2018-Oct-14 16:01N 53°27' W 003°01'0 0.8
2018-Oct-14 15:31N 53°27' W 003°01'0 0.4
2018-Oct-14 15:04N 53°27' W 003°01'0 6.2
2018-Oct-14 15:00N 53°27' W 003°02'1516.0
2018-Oct-14 14:03N 53°31' W 003°26'120.6
2018-Oct-14 14:00N 53°31' W 003°28'1020.6
2018-Oct-14 13:30N 53°32' W 003°45'1021.4
2018-Oct-14 13:03N 53°34' W 004°01'121.6
2018-Oct-14 13:01N 53°34' W 004°03'5421.5
2018-Oct-14 10:30N 53°25' W 005°32'1120.8
2018-Oct-14 09:58N 53°23' W 005°51'1019.6
2018-Oct-14 09:29N 53°20' W 006°06'4 3.5
2018-Oct-14 08:18N 53°21' W 006°13'0 0.0
2018-Oct-14 07:54N 53°21' W 006°13'0 0.0
2018-Oct-14 04:31N 53°21' W 006°13'0 0.2
2018-Oct-14 03:58N 53°21' W 006°13'6 9.9
2018-Oct-14 03:25N 53°20' W 006°04'1019.9
2018-Oct-14 02:56N 53°24' W 005°49'920.1
2018-Oct-14 02:30N 53°26' W 005°35'5418.7
2018-Oct-13 23:35N 53°34' W 004°04'218.4
2018-Oct-13 23:27N 53°34' W 004°00'718.6
2018-Oct-13 23:03N 53°34' W 003°48'118.5
2018-Oct-13 22:59N 53°34' W 003°45'918.6
2018-Oct-13 22:30N 53°33' W 003°31'818.2
2018-Oct-13 22:03N 53°32' W 003°17'116.1
2018-Oct-13 22:00N 53°32' W 003°16'713.9
2018-Oct-13 21:30N 53°29' W 003°05'3 6.6
2018-Oct-13 21:04N 53°27' W 003°01'0 0.0
2018-Oct-13 21:01N 53°27' W 003°01'0 0.9
2018-Oct-13 20:31N 53°27' W 003°01'0 0.0
2018-Oct-13 20:04N 53°27' W 003°01'0 0.0
2018-Oct-13 20:01N 53°27' W 003°01'0 0.0
2018-Oct-13 19:31N 53°27' W 003°01'0 0.0
2018-Oct-13 19:04N 53°27' W 003°01'0 0.0
2018-Oct-13 19:01N 53°27' W 003°01'0 0.0
2018-Oct-13 18:30N 53°27' W 003°01'0 0.0
2018-Oct-13 18:03N 53°27' W 003°01'0 0.0
2018-Oct-13 18:00N 53°27' W 003°01'0 0.0
2018-Oct-13 17:31N 53°27' W 003°01'0 0.0
2018-Oct-13 17:03N 53°27' W 003°01'0 0.0
2018-Oct-13 17:01N 53°27' W 003°01'0 0.0
2018-Oct-13 16:31N 53°27' W 003°01'0 0.0
2018-Oct-13 16:03N 53°27' W 003°01'0 0.0
2018-Oct-13 16:01N 53°27' W 003°01'0 0.5
2018-Oct-13 15:31N 53°27' W 003°01'0 0.9
2018-Oct-13 15:03N 53°27' W 003°01'0 0.3
2018-Oct-13 15:00N 53°27' W 003°01'713.3
2018-Oct-13 14:30N 53°32' W 003°09'918.3
2018-Oct-13 14:01N 53°31' W 003°24'918.9
2018-Oct-13 13:30N 53°31' W 003°40'919.2
2018-Oct-13 13:03N 53°33' W 003°54'119.6
2018-Oct-13 13:00N 53°33' W 003°56'5919.7
2018-Oct-13 10:01N 53°27' W 005°34'519.0
2018-Oct-13 09:45N 53°25' W 005°42'619.0
2018-Oct-13 09:26N 53°23' W 005°51'819.3
2018-Oct-13 09:00N 53°20' W 006°04'5 9.6
2018-Oct-13 08:29N 53°21' W 006°13'0 0.6
2018-Oct-13 08:03N 53°21' W 006°13'0 0.0
2018-Oct-13 07:53N 53°21' W 006°13'0 0.0
2018-Oct-13 07:30N 53°21' W 006°13'0 0.0
2018-Oct-13 06:59N 53°21' W 006°13'0 0.0
2018-Oct-13 06:29N 53°21' W 006°13'0 0.0
2018-Oct-13 06:01N 53°21' W 006°13'0 0.0
2018-Oct-13 05:26N 53°21' W 006°13'0 0.0
2018-Oct-13 05:03N 53°21' W 006°13'0 0.0
2018-Oct-13 05:00N 53°21' W 006°13'0 0.0
2018-Oct-13 04:30N 53°21' W 006°13'1 0.9
2018-Oct-13 03:51N 53°21' W 006°12'411.3
2018-Oct-13 03:28N 53°20' W 006°05'919.7
2018-Oct-13 03:02N 53°23' W 005°52'120.5
2018-Oct-13 02:59N 53°24' W 005°50'1020.4
2018-Oct-13 02:30N 53°26' W 005°34'5319.2
2018-Oct-12 23:44N 53°34' W 004°06'518.4
2018-Oct-12 23:29N 53°34' W 003°58'818.5
2018-Oct-12 23:02N 53°34' W 003°44'018.4
2018-Oct-12 23:00N 53°34' W 003°43'918.4
2018-Oct-12 22:30N 53°33' W 003°28'817.7
2018-Oct-12 22:03N 53°31' W 003°15'115.9
2018-Oct-12 22:00N 53°31' W 003°13'713.5
2018-Oct-12 21:30N 53°28' W 003°03'2 3.8
2018-Oct-12 21:04N 53°27' W 003°01'0 0.0
2018-Oct-12 21:00N 53°27' W 003°01'0 0.6
2018-Oct-12 20:30N 53°27' W 003°01'0 0.0
2018-Oct-12 20:03N 53°27' W 003°01'0 0.0
2018-Oct-12 20:00N 53°27' W 003°01'0 0.0
2018-Oct-12 19:30N 53°27' W 003°01'0 0.0
2018-Oct-12 19:03N 53°27' W 003°01'0 0.0
2018-Oct-12 19:00N 53°27' W 003°01'0 0.0
2018-Oct-12 18:30N 53°27' W 003°01'0 0.0
2018-Oct-12 18:03N 53°27' W 003°01'0 0.0
2018-Oct-12 18:00N 53°27' W 003°01'0 0.0
2018-Oct-12 17:30N 53°27' W 003°01'0 0.0
2018-Oct-12 17:03N 53°27' W 003°01'0 0.0
2018-Oct-12 17:00N 53°27' W 003°01'0 0.0
2018-Oct-12 16:31N 53°27' W 003°01'0 0.0
2018-Oct-12 16:03N 53°27' W 003°01'0 0.0
2018-Oct-12 16:00N 53°27' W 003°01'0 0.0
2018-Oct-12 15:30N 53°27' W 003°01'0 0.0
2018-Oct-12 15:03N 53°27' W 003°01'0 0.0
2018-Oct-12 15:00N 53°27' W 003°01'0 0.0
2018-Oct-12 14:30N 53°27' W 003°01'0 0.0
2018-Oct-12 14:00N 53°27' W 003°01'0 0.0
2018-Oct-12 13:30N 53°27' W 003°01'0 0.0
2018-Oct-12 13:03N 53°27' W 003°01'0 0.0
2018-Oct-12 13:00N 53°27' W 003°01'0 0.0
2018-Oct-12 12:30N 53°27' W 003°01'0 0.0
2018-Oct-12 12:03N 53°27' W 003°01'0 0.0
2018-Oct-12 12:01N 53°27' W 003°01'0 0.0
2018-Oct-12 11:31N 53°27' W 003°01'0 0.0
2018-Oct-12 11:03N 53°27' W 003°01'0 0.0
2018-Oct-12 11:01N 53°27' W 003°01'0 0.0
2018-Oct-12 10:30N 53°27' W 003°01'0 0.0
2018-Oct-12 10:04N 53°27' W 003°01'0 0.0
2018-Oct-12 10:00N 53°27' W 003°01'0 0.0
2018-Oct-12 09:31N 53°27' W 003°01'0 0.0
2018-Oct-12 09:04N 53°27' W 003°01'0 0.0
2018-Oct-12 09:00N 53°27' W 003°01'0 0.0
2018-Oct-12 08:30N 53°27' W 003°01'0 0.0
2018-Oct-12 08:03N 53°27' W 003°01'0 0.0
2018-Oct-12 08:01N 53°27' W 003°01'0 0.0
2018-Oct-12 07:30N 53°27' W 003°01'0 0.0
2018-Oct-12 07:03N 53°27' W 003°01'0 0.0
2018-Oct-12 07:00N 53°27' W 003°01'0 0.0
2018-Oct-12 06:30N 53°27' W 003°01'0 0.0
2018-Oct-12 06:04N 53°27' W 003°01'0 0.0
2018-Oct-12 06:01N 53°27' W 003°01'0 0.0
2018-Oct-12 05:31N 53°27' W 003°01'0 0.0
2018-Oct-12 05:04N 53°27' W 003°01'0 0.0
2018-Oct-12 05:01N 53°27' W 003°01'0 0.0
2018-Oct-12 04:31N 53°27' W 003°01'0 0.4
2018-Oct-12 04:03N 53°27' W 003°01'0 1.5
2018-Oct-12 04:01N 53°27' W 003°01'0 0.6
2018-Oct-12 03:31N 53°27' W 003°01'510.4
2018-Oct-12 03:04N 53°30' W 003°06'115.9
2018-Oct-12 03:01N 53°31' W 003°07'815.8
2018-Oct-12 02:31N 53°31' W 003°20'816.7
2018-Oct-12 02:04N 53°31' W 003°33'116.0
2018-Oct-12 02:01N 53°31' W 003°34'816.3
2018-Oct-12 01:30N 53°31' W 003°48'818.0
2018-Oct-12 01:04N 53°32' W 004°01'118.1
2018-Oct-12 01:00N 53°32' W 004°03'918.4
2018-Oct-12 00:30N 53°33' W 004°19'5619.0
2018-Oct-11 21:33N 53°23' W 005°51'719.8
2018-Oct-11 21:12N 53°20' W 006°02'216.4
2018-Oct-11 21:03N 53°20' W 006°06'4 0.9
2018-Oct-11 16:28N 53°21' W 006°13'3 4.5
2018-Oct-11 15:54N 53°21' W 006°09'716.6
2018-Oct-11 15:29N 53°22' W 005°57'918.5
2018-Oct-11 15:01N 53°24' W 005°44'018.9
2018-Oct-11 15:00N 53°24' W 005°43'1018.2
2018-Oct-11 14:29N 53°27' W 005°28'5917.7
2018-Oct-11 11:10N 53°34' W 003°50'217.2
2018-Oct-11 11:02N 53°34' W 003°46'117.1
2018-Oct-11 11:00N 53°34' W 003°45'816.8
2018-Oct-11 10:30N 53°33' W 003°31'816.9
2018-Oct-11 10:03N 53°32' W 003°19'116.9
2018-Oct-11 10:00N 53°31' W 003°17'714.8
2018-Oct-11 09:30N 53°30' W 003°05'4 8.0
2018-Oct-11 09:03N 53°27' W 003°01'0 0.0
2018-Oct-11 09:00N 53°27' W 003°01'0 0.9
2018-Oct-11 08:31N 53°27' W 003°01'0 0.0
2018-Oct-11 08:03N 53°27' W 003°01'0 0.0
2018-Oct-11 08:01N 53°27' W 003°01'0 0.0
2018-Oct-11 07:31N 53°27' W 003°01'0 0.0
2018-Oct-11 07:03N 53°27' W 003°01'0 0.0
2018-Oct-11 07:00N 53°27' W 003°01'0 0.0
2018-Oct-11 06:31N 53°27' W 003°01'0 0.0
2018-Oct-11 06:03N 53°27' W 003°01'0 0.0
2018-Oct-11 06:01N 53°27' W 003°01'0 0.0
2018-Oct-11 05:31N 53°27' W 003°01'0 0.0
2018-Oct-11 05:03N 53°27' W 003°01'0 0.0
2018-Oct-11 05:01N 53°27' W 003°01'0 0.0
2018-Oct-11 04:31N 53°27' W 003°01'0 1.0
2018-Oct-11 04:03N 53°27' W 003°01'0 0.0
2018-Oct-11 04:00N 53°27' W 003°01'0 0.3
2018-Oct-11 03:31N 53°27' W 003°01'510.2
2018-Oct-11 03:03N 53°30' W 003°06'115.2
2018-Oct-11 03:00N 53°31' W 003°07'816.0
2018-Oct-11 02:30N 53°31' W 003°20'817.3
2018-Oct-11 02:03N 53°31' W 003°33'117.1
2018-Oct-11 02:00N 53°31' W 003°35'917.2
2018-Oct-11 01:30N 53°32' W 003°49'715.7
2018-Oct-11 01:03N 53°33' W 004°01'114.6
2018-Oct-11 01:00N 53°33' W 004°02'6218.2
2018-Oct-10 21:35N 53°24' W 005°46'319.0
2018-Oct-10 21:24N 53°23' W 005°51'918.9
2018-Oct-10 20:56N 53°20' W 006°05'5 2.1
2018-Oct-10 18:27N 53°21' W 006°13'3 1.2
2018-Oct-10 16:05N 53°21' W 006°08'214.1
2018-Oct-10 15:56N 53°20' W 006°04'818.6
2018-Oct-10 15:29N 53°23' W 005°51'918.7
2018-Oct-10 15:00N 53°26' W 005°37'  

Dump ship's entire track history